Time;durP1;ratioP1;P1;durP2;ratioP2;P2;SDS_P1;SDS_P2;PMS_P1;PMS_P2;Temp;Humidity;BMP_temperature;BMP_pressure;BME280_temperature;BME280_humidity;BME280_pressure;Samples;Min_cycle;Max_cycle;Signal;HPM_P1;HPM_P2
2024/01/13 00:03:42;;;;;;;21.13;9.65;;;;;;;2.98;65.86;101595.25;10374983;28;20264;-82
2024/01/13 00:08:44;;;;;;;23.80;10.07;;;;;;;2.98;66.14;101597.03;10378168;28;20533;-82
2024/01/13 00:13:45;;;;;;;28.10;10.05;;;;;;;2.99;65.90;101580.16;10382343;28;20046;-83
2024/01/13 00:18:47;;;;;;;29.10;9.45;;;;;;;2.97;66.17;101564.31;10386923;28;20069;-83
2024/01/13 00:23:49;;;;;;;25.27;9.98;;;;;;;3.02;66.27;101560.50;10391315;28;20068;-82
2024/01/13 00:28:50;;;;;;;30.52;11.18;;;;;;;2.90;66.49;101559.47;10383437;28;20057;-81
2024/01/13 00:33:52;;;;;;;25.35;11.75;;;;;;;2.94;65.85;101559.19;10382547;28;20141;-81
2024/01/13 00:38:54;;;;;;;27.10;10.60;;;;;;;2.93;66.51;101552.16;10389857;28;20385;-81
2024/01/13 00:43:55;;;;;;;22.77;9.82;;;;;;;2.91;66.25;101540.78;10382937;28;20049;-81
2024/01/13 00:48:57;;;;;;;24.38;10.77;;;;;;;2.89;66.37;101536.53;10381775;28;20072;-81
2024/01/13 00:53:59;;;;;;;27.50;10.52;;;;;;;2.88;66.66;101538.31;10384360;28;20049;-81
2024/01/13 00:59:01;;;;;;;22.67;9.82;;;;;;;2.92;66.32;101534.53;10422524;28;20144;-81
2024/01/13 01:04:03;;;;;;;22.05;10.23;;;;;;;2.93;66.24;101530.94;10418574;28;20048;-81
2024/01/13 01:09:08;;;;;;;25.33;10.20;;;;;;;2.93;66.65;101538.91;10405733;28;20051;-81
2024/01/13 01:14:10;;;;;;;27.95;11.38;;;;;;;2.83;66.68;101519.19;10401812;28;20069;-81
2024/01/13 01:19:12;;;;;;;24.77;11.40;;;;;;;2.86;66.60;101518.13;10425062;28;20041;-81
2024/01/13 01:24:13;;;;;;;25.20;10.98;;;;;;;2.75;67.09;101517.00;10424597;28;20073;-81
2024/01/13 01:29:15;;;;;;;31.25;12.07;;;;;;;2.76;67.10;101510.75;10429012;28;20054;-81
2024/01/13 01:34:16;;;;;;;25.20;11.65;;;;;;;2.78;67.08;101505.34;10430595;28;20574;-81
2024/01/13 01:39:18;;;;;;;31.75;11.07;;;;;;;2.82;66.43;101506.84;10426151;28;20470;-81
2024/01/13 01:44:20;;;;;;;27.42;11.27;;;;;;;2.84;66.95;101499.63;10405963;28;20045;-81
2024/01/13 01:49:22;;;;;;;26.77;10.52;;;;;;;2.90;66.50;101498.41;10405046;28;20044;-81
2024/01/13 01:54:24;;;;;;;24.75;10.35;;;;;;;2.95;66.71;101488.34;10426652;28;20136;-81
2024/01/13 01:59:26;;;;;;;31.42;12.57;;;;;;;3.01;66.34;101492.41;10404261;28;20049;-80
2024/01/13 02:04:28;;;;;;;27.23;12.00;;;;;;;2.87;66.65;101488.00;10421667;28;20042;-80
2024/01/13 02:09:30;;;;;;;31.95;12.32;;;;;;;2.97;66.36;101494.41;10420664;28;20672;-80
2024/01/13 02:14:32;;;;;;;31.67;12.45;;;;;;;2.81;67.09;101489.22;10415057;28;20040;-80
2024/01/13 02:19:33;;;;;;;35.35;13.40;;;;;;;2.73;67.18;101491.53;10408555;28;20045;-80
2024/01/13 02:24:35;;;;;;;29.50;10.90;;;;;;;2.64;67.63;101481.47;10415754;28;20044;-80
2024/01/13 02:29:37;;;;;;;27.30;11.55;;;;;;;2.72;66.97;101465.91;10421866;28;20774;-80
2024/01/13 02:34:38;;;;;;;36.80;13.55;;;;;;;2.58;67.76;101458.81;10418952;28;20067;-80
2024/01/13 02:39:40;;;;;;;33.88;11.73;;;;;;;2.56;67.57;101458.91;10401228;28;20072;-80
2024/01/13 02:44:42;;;;;;;28.02;11.50;;;;;;;2.52;67.25;101465.34;10422755;28;20403;-81
2024/01/13 02:49:43;;;;;;;33.47;12.82;;;;;;;2.49;67.44;101462.03;10421077;28;20124;-80
2024/01/13 02:54:45;;;;;;;29.50;11.02;;;;;;;2.49;67.74;101462.91;10423167;28;20061;-80
2024/01/13 02:59:47;;;;;;;29.25;10.80;;;;;;;2.45;67.50;101464.06;10398688;28;20132;-81
2024/01/13 03:04:48;;;;;;;40.05;13.82;;;;;;;2.41;67.66;101456.38;10409456;28;20121;-81
2024/01/13 03:09:50;;;;;;;27.73;11.43;;;;;;;2.53;67.80;101459.13;10418946;28;20073;-81
2024/01/13 03:14:52;;;;;;;29.88;12.73;;;;;;;2.49;67.87;101454.06;10412905;28;20041;-81
2024/01/13 03:19:53;;;;;;;28.63;10.68;;;;;;;2.43;68.16;101451.81;10397388;28;20049;-81
2024/01/13 03:24:56;;;;;;;31.17;12.10;;;;;;;2.46;67.81;101444.50;10418594;28;20567;-81
2024/01/13 03:29:57;;;;;;;33.38;11.73;;;;;;;2.46;68.00;101422.44;10417502;28;20076;-81
2024/01/13 03:34:59;;;;;;;33.72;12.60;;;;;;;2.44;67.76;101424.34;10421793;28;20056;-80
2024/01/13 03:40:01;;;;;;;26.90;10.93;;;;;;;2.41;67.98;101414.78;10420468;28;20085;-81
2024/01/13 03:45:02;;;;;;;33.88;12.60;;;;;;;2.34;68.08;101422.25;10430536;28;20053;-81
2024/01/13 03:50:06;;;;;;;31.75;12.25;;;;;;;2.35;68.08;101408.06;10424763;28;20049;-81
2024/01/13 03:55:08;;;;;;;34.20;13.48;;;;;;;2.37;67.82;101405.31;10424551;28;20057;-81
2024/01/13 04:00:10;;;;;;;30.95;11.77;;;;;;;2.32;68.08;101407.41;10425145;28;20073;-82
2024/01/13 04:05:12;;;;;;;34.13;13.02;;;;;;;2.28;68.45;101398.78;10429755;28;20506;-81
2024/01/13 04:10:14;;;;;;;34.10;14.10;;;;;;;2.34;68.49;101395.72;10407514;28;20056;-81
2024/01/13 04:15:35;;;;;;;36.67;13.50;;;;;;;2.31;68.62;101387.09;10397634;28;20056;-82
2024/01/13 04:20:37;;;;;;;38.80;14.32;;;;;;;2.37;68.84;101382.28;10425218;28;20045;-81
2024/01/13 04:25:39;;;;;;;41.60;14.52;;;;;;;2.36;68.25;101383.22;10427457;28;20046;-82
2024/01/13 04:30:41;;;;;;;36.63;14.40;;;;;;;2.37;68.10;101370.81;10422289;28;20132;-81
2024/01/13 04:35:42;;;;;;;33.05;12.77;;;;;;;2.36;68.01;101355.84;10419355;28;20504;-82
2024/01/13 04:40:47;;;;;;;37.17;14.70;;;;;;;2.28;68.75;101345.72;10406968;28;20045;-81
2024/01/13 04:45:48;;;;;;;35.95;13.98;;;;;;;2.32;68.48;101352.53;10420512;28;20068;-81
2024/01/13 04:50:51;;;;;;;40.22;13.98;;;;;;;2.39;68.35;101360.97;10415754;28;20145;-81
2024/01/13 04:55:53;;;;;;;34.78;13.98;;;;;;;2.37;68.27;101354.91;10422125;28;20065;-80
2024/01/13 05:00:54;;;;;;;40.30;16.58;;;;;;;2.37;68.59;101341.63;10425537;28;20069;-81
2024/01/13 05:05:56;;;;;;;40.40;14.43;;;;;;;2.32;68.42;101338.41;10405763;28;20520;-81
2024/01/13 05:10:58;;;;;;;45.55;16.08;;;;;;;2.26;68.85;101325.56;10402014;28;20456;-81
2024/01/13 05:15:59;;;;;;;38.47;14.80;;;;;;;2.28;68.63;101337.75;10403718;28;20500;-81
2024/01/13 05:21:01;;;;;;;42.22;16.30;;;;;;;2.31;68.86;101320.78;10419926;28;20448;-80
2024/01/13 05:26:03;;;;;;;45.45;16.73;;;;;;;2.26;68.82;101310.47;10426355;28;20044;-81
2024/01/13 05:31:04;;;;;;;43.75;16.05;;;;;;;2.32;68.50;101315.38;10419455;28;20512;-81
2024/01/13 05:36:06;;;;;;;36.25;14.70;;;;;;;2.33;68.91;101305.63;10424491;28;20068;-81
2024/01/13 05:41:09;;;;;;;37.05;15.13;;;;;;;2.22;69.13;101303.66;10421684;28;20053;-81
2024/01/13 05:46:11;;;;;;;35.95;14.02;;;;;;;2.20;68.80;101296.78;10417339;28;20104;-81
2024/01/13 05:51:13;;;;;;;38.67;14.05;;;;;;;2.27;68.86;101290.09;10403705;28;20053;-81
2024/01/13 05:56:14;;;;;;;40.08;15.25;;;;;;;2.27;68.76;101306.00;10408116;28;20389;-82
2024/01/13 06:01:16;;;;;;;37.83;13.88;;;;;;;2.29;68.86;101305.00;10420315;28;20063;-82
2024/01/13 06:06:18;;;;;;;37.28;14.00;;;;;;;2.35;69.00;101293.97;10419447;28;20053;-82
2024/01/13 06:11:20;;;;;;;39.28;14.82;;;;;;;2.34;68.65;101297.56;10404788;28;20448;-82
2024/01/13 06:16:22;;;;;;;39.05;15.68;;;;;;;2.32;68.73;101283.56;10424670;28;20080;-82
2024/01/13 06:21:23;;;;;;;35.10;13.82;;;;;;;2.35;68.58;101277.19;10404240;28;20056;-82
2024/01/13 06:26:26;;;;;;;37.00;13.35;;;;;;;2.47;68.80;101276.41;10422325;28;20076;-82
2024/01/13 06:31:27;;;;;;;37.65;13.93;;;;;;;2.58;68.27;101271.22;10421094;28;20496;-82
2024/01/13 06:36:29;;;;;;;36.00;15.52;;;;;;;2.59;68.18;101266.78;10418653;28;20506;-82
2024/01/13 06:41:31;;;;;;;35.25;14.18;;;;;;;2.55;68.57;101252.88;10411769;28;20100;-82
2024/01/13 06:46:33;;;;;;;36.33;13.98;;;;;;;2.46;68.71;101266.72;10406883;28;20073;-82
2024/01/13 06:51:34;;;;;;;37.05;15.32;;;;;;;2.43;68.97;101269.59;10426599;28;20485;-82
2024/01/13 06:56:37;;;;;;;35.03;15.02;;;;;;;2.45;68.74;101270.34;10400305;28;20124;-82
2024/01/13 07:01:39;;;;;;;39.55;15.45;;;;;;;2.52;68.38;101274.28;10416861;28;20052;-82
2024/01/13 07:06:40;;;;;;;37.95;14.32;;;;;;;2.41;68.47;101263.53;10418031;28;20064;-82
2024/01/13 07:11:42;;;;;;;41.17;17.67;;;;;;;2.40;68.87;101261.00;10426586;28;20049;-82
2024/01/13 07:16:44;;;;;;;31.63;13.20;;;;;;;2.54;68.39;101272.38;10403807;28;20055;-82
2024/01/13 07:21:45;;;;;;;40.08;14.60;;;;;;;2.63;68.23;101264.78;10422082;28;20120;-90
2024/01/13 07:26:47;;;;;;;33.13;12.48;;;;;;;2.74;67.89;101273.72;10429839;28;20033;-89
2024/01/13 07:31:52;;;;;;;40.90;15.32;;;;;;;2.70;68.72;101261.59;10416913;28;20124;-89
2024/01/13 07:36:54;;;;;;;33.78;12.82;;;;;;;2.80;68.33;101284.88;10430876;28;20083;-89
2024/01/13 07:41:55;;;;;;;37.15;14.45;;;;;;;2.82;67.90;101280.31;10442337;28;20083;-90
2024/01/13 07:47:01;;;;;;;34.00;13.02;;;;;;;2.77;68.18;101281.47;10431292;28;20068;-90
2024/01/13 07:52:02;;;;;;;40.42;15.88;;;;;;;2.85;68.17;101269.50;10422323;28;20041;-89
2024/01/13 07:57:04;;;;;;;38.63;14.07;;;;;;;2.92;67.94;101255.72;10451395;28;20045;-87
2024/01/13 08:02:06;;;;;;;34.70;13.98;;;;;;;2.93;67.68;101246.78;10413402;28;20056;-88
2024/01/13 08:07:07;;;;;;;37.28;15.23;;;;;;;2.82;68.45;101227.22;10415464;28;20053;-86
2024/01/13 08:12:09;;;;;;;38.60;14.43;;;;;;;2.92;68.20;101234.47;10414663;28;20077;-85
2024/01/13 08:17:11;;;;;;;29.98;12.88;;;;;;;2.98;68.12;101233.16;10442814;28;20607;-87
2024/01/13 08:22:13;;;;;;;36.33;15.05;;;;;;;3.02;68.00;101233.81;10459091;22;20049;-61
2024/01/13 08:27:14;;;;;;;36.70;15.15;;;;;;;3.04;68.00;101240.75;10446624;28;20045;-61
2024/01/13 08:32:16;;;;;;;35.63;13.52;;;;;;;3.12;67.76;101243.72;10453730;28;20052;-61
2024/01/13 08:37:17;;;;;;;35.53;14.38;;;;;;;3.05;68.16;101229.16;10457759;28;20064;-60
2024/01/13 08:42:19;;;;;;;30.02;12.88;;;;;;;3.09;68.00;101233.28;10455572;28;20049;-62
2024/01/13 08:47:21;;;;;;;29.35;12.35;;;;;;;3.05;68.10;101215.88;10461368;28;20053;-62
2024/01/13 08:52:22;;;;;;;36.35;12.50;;;;;;;3.05;68.13;101218.53;10455752;28;20054;-62
2024/01/13 08:57:24;;;;;;;31.95;14.13;;;;;;;3.19;67.78;101217.56;10436402;28;20046;-63
2024/01/13 09:02:26;;;;;;;35.00;12.98;;;;;;;3.15;67.85;101193.03;10421487;28;20049;-61
2024/01/13 09:07:28;;;;;;;35.28;14.15;;;;;;;3.12;68.05;101171.13;10424337;28;20111;-64
2024/01/13 09:12:29;;;;;;;32.30;13.27;;;;;;;3.03;68.04;101201.84;10424904;28;20052;-61
2024/01/13 09:17:31;;;;;;;34.40;12.48;;;;;;;3.02;68.46;101204.59;10409029;28;20053;-62
2024/01/13 09:22:32;;;;;;;31.70;11.48;;;;;;;2.99;68.28;101203.03;10422981;28;20053;-65
2024/01/13 09:27:34;;;;;;;32.80;12.13;;;;;;;3.03;68.20;101206.31;10426022;28;20067;-65
2024/01/13 09:32:35;;;;;;;30.42;11.48;;;;;;;3.05;68.17;101164.56;10431158;28;20052;-62
2024/01/13 09:37:37;;;;;;;37.17;12.75;;;;;;;3.06;67.88;101126.41;10425866;28;20059;-63
2024/01/13 09:42:57;;;;;;;28.40;12.05;;;;;;;3.08;67.86;101116.53;10421050;28;20144;-63
2024/01/13 09:48:03;;;;;;;22.58;10.20;;;;;;;3.07;68.09;101150.22;10414671;28;20080;-66
2024/01/13 09:53:07;;;;;;;26.50;10.45;;;;;;;3.28;67.70;101192.16;10394879;28;20080;-65
2024/01/13 09:58:09;;;;;;;29.23;12.05;;;;;;;3.23;67.95;101178.34;10393553;28;20046;-65
2024/01/13 10:03:11;;;;;;;22.50;9.63;;;;;;;3.25;67.78;101161.34;10393858;28;20080;-66
2024/01/13 10:08:13;;;;;;;27.33;10.90;;;;;;;3.33;67.94;101143.03;10398864;28;20064;-65
2024/01/13 10:13:14;;;;;;;28.67;10.38;;;;;;;3.28;67.87;101129.25;10393646;28;20056;-65
2024/01/13 10:18:17;;;;;;;24.55;10.60;;;;;;;3.31;68.02;101121.06;10396386;28;20067;-65
2024/01/13 10:23:19;;;;;;;27.00;12.30;;;;;;;3.40;67.71;101100.09;10395500;28;20053;-65
2024/01/13 10:28:22;;;;;;;23.30;10.20;;;;;;;3.46;67.59;101104.97;10396672;28;20051;-65
2024/01/13 10:33:24;;;;;;;24.48;9.68;;;;;;;3.48;67.73;101082.63;10397467;28;20053;-66
2024/01/13 10:38:25;;;;;;;28.90;11.88;;;;;;;3.41;67.72;101065.44;10384862;28;20107;-65
2024/01/13 10:43:27;;;;;;;27.27;11.10;;;;;;;3.47;67.58;101026.94;10400904;28;20053;-66
2024/01/13 10:48:37;;;;;;;30.27;11.98;;;;;;;3.49;67.65;101022.34;10413594;28;20420;-66
2024/01/13 10:53:42;;;;;;;25.75;9.77;;;;;;;3.58;67.72;101061.56;10394154;28;20065;-66
2024/01/13 10:58:45;;;;;;;21.35;8.77;;;;;;;3.61;67.44;101074.59;10411736;28;20041;-62
2024/01/13 11:03:50;;;;;;;23.27;10.30;;;;;;;3.65;67.24;101085.88;10428225;28;20045;-62
2024/01/13 11:08:52;;;;;;;20.17;8.68;;;;;;;3.89;66.82;101083.19;10427562;28;20084;-67
2024/01/13 11:14:05;;;;;;;23.33;10.35;;;;;;;3.83;66.97;101076.53;10431590;28;20088;-65
2024/01/13 11:19:07;;;;;;;23.88;11.45;;;;;;;3.94;66.88;101083.69;10429102;28;20053;-64
2024/01/13 11:24:13;;;;;;;23.67;9.88;;;;;;;4.05;66.09;101066.91;10431341;28;20061;-62
2024/01/13 11:29:18;;;;;;;21.73;9.07;;;;;;;4.15;66.53;101059.97;10429802;28;20049;-62
2024/01/13 11:34:19;;;;;;;21.55;8.48;;;;;;;4.04;66.70;101043.97;10433592;28;20037;-62
2024/01/13 11:39:22;;;;;;;20.88;8.50;;;;;;;4.07;66.19;101036.59;10436238;28;20060;-65
2024/01/13 11:44:24;;;;;;;16.38;7.47;;;;;;;4.12;66.36;101020.28;10431836;28;20049;-62
2024/01/13 11:49:30;;;;;;;16.15;7.15;;;;;;;4.07;66.38;101014.44;10424024;28;20156;-62
2024/01/13 11:54:34;;;;;;;18.85;8.05;;;;;;;4.08;66.19;101008.19;10422273;28;20675;-63
2024/01/13 11:59:36;;;;;;;16.52;6.85;;;;;;;4.10;66.15;101023.03;10422218;28;20042;-62
2024/01/13 12:04:41;;;;;;;16.40;6.80;;;;;;;4.12;66.22;101030.91;10426514;28;20101;-64
2024/01/13 12:09:42;;;;;;;16.65;6.80;;;;;;;4.09;65.88;101026.69;10408879;28;20072;-65
2024/01/13 12:14:44;;;;;;;13.85;6.28;;;;;;;3.97;66.02;101017.00;10402274;28;20041;-65
2024/01/13 12:19:46;;;;;;;14.02;5.55;;;;;;;3.99;65.95;101007.09;10400569;28;20434;-65
2024/01/13 12:24:48;;;;;;;14.70;6.85;;;;;;;3.97;65.89;100995.72;10401793;28;20050;-66
2024/01/13 12:29:56;;;;;;;13.48;5.80;;;;;;;3.97;66.03;100991.22;10401521;28;20041;-65
2024/01/13 12:34:57;;;;;;;14.23;5.82;;;;;;;3.89;65.84;100979.47;10398386;28;20095;-66
2024/01/13 12:39:59;;;;;;;12.95;5.65;;;;;;;3.86;65.41;100967.25;10398707;28;20128;-66
2024/01/13 12:45:01;;;;;;;15.38;6.70;;;;;;;3.70;65.55;100964.09;10398976;28;20057;-66
2024/01/13 12:50:09;;;;;;;15.77;6.40;;;;;;;3.66;65.32;100936.88;10398637;28;20496;-66
2024/01/13 12:55:10;;;;;;;14.48;6.35;;;;;;;3.71;65.31;100925.88;10398075;28;20104;-65
2024/01/13 13:00:18;;;;;;;13.27;5.30;;;;;;;3.69;65.08;100909.19;10396548;28;20113;-67
2024/01/13 13:05:19;;;;;;;11.68;5.63;;;;;;;3.78;64.81;100900.53;10396823;28;20076;-65
2024/01/13 13:10:21;;;;;;;12.68;5.40;;;;;;;3.82;64.84;100901.16;10395924;28;20041;-64
2024/01/13 13:15:22;;;;;;;13.30;5.85;;;;;;;3.87;64.58;100906.94;10394470;28;20413;-65
2024/01/13 13:20:24;;;;;;;12.20;5.55;;;;;;;3.94;64.55;100916.16;10442748;28;20038;-63
2024/01/13 13:25:28;;;;;;;13.15;5.75;;;;;;;3.91;64.42;100900.41;10450602;28;20097;-64
2024/01/13 13:30:29;;;;;;;14.13;6.32;;;;;;;3.89;64.30;100894.38;10450457;28;20029;-64
2024/01/13 13:35:31;;;;;;;10.25;5.57;;;;;;;3.84;64.47;100885.91;10452532;28;20029;-64
2024/01/13 13:40:33;;;;;;;14.13;6.13;;;;;;;3.77;64.68;100881.09;10449307;28;20045;-64
2024/01/13 13:45:34;;;;;;;15.95;6.68;;;;;;;3.71;64.73;100884.22;10450287;28;20029;-64
2024/01/13 13:50:36;;;;;;;13.90;5.63;;;;;;;3.64;64.99;100882.97;10449978;28;20045;-64
2024/01/13 13:55:37;;;;;;;12.68;5.05;;;;;;;3.60;64.67;100873.56;10452267;28;20029;-64
2024/01/13 14:00:38;;;;;;;12.00;5.65;;;;;;;3.68;64.54;100865.00;10450497;28;20060;-65
2024/01/13 14:05:41;;;;;;;11.55;5.28;;;;;;;3.65;64.79;100836.81;10452507;28;20065;-64
2024/01/13 14:10:44;;;;;;;13.82;6.03;;;;;;;3.70;64.69;100818.69;10447299;28;20052;-64
2024/01/13 14:15:45;;;;;;;14.73;6.07;;;;;;;3.72;64.39;100826.56;10447947;28;20104;-64
2024/01/13 14:20:47;;;;;;;15.18;7.35;;;;;;;3.68;64.52;100825.13;10447901;28;20044;-64
2024/01/13 14:25:48;;;;;;;20.00;6.68;;;;;;;3.67;64.45;100826.06;10447679;28;20045;-63
2024/01/13 14:30:55;;;;;;;15.45;5.93;;;;;;;3.72;64.46;100826.56;10444972;28;20085;-64
2024/01/13 14:35:57;;;;;;;14.55;5.57;;;;;;;3.69;64.29;100834.75;10447323;28;20036;-64
2024/01/13 14:40:58;;;;;;;16.40;7.00;;;;;;;3.62;64.45;100833.56;10446903;28;20097;-64
2024/01/13 14:46:00;;;;;;;14.80;5.90;;;;;;;3.63;64.03;100835.25;10449246;28;20311;-64
2024/01/13 14:51:02;;;;;;;13.00;5.38;;;;;;;3.60;64.07;100824.88;10429152;28;20041;-64
2024/01/13 14:56:05;;;;;;;12.88;5.15;;;;;;;3.59;64.05;100818.69;10449466;28;20236;-64
2024/01/13 15:01:06;;;;;;;12.05;4.97;;;;;;;3.54;64.38;100820.88;10448574;28;20037;-64
2024/01/13 15:06:08;;;;;;;12.48;4.90;;;;;;;3.49;64.17;100810.56;10450003;28;20129;-64
2024/01/13 15:11:09;;;;;;;12.60;5.55;;;;;;;3.40;64.09;100811.31;10447073;28;20057;-64
2024/01/13 15:16:11;;;;;;;15.35;5.85;;;;;;;3.29;64.50;100805.97;10451485;28;20048;-64
2024/01/13 15:21:12;;;;;;;12.60;4.72;;;;;;;3.25;64.42;100794.72;10450767;28;20053;-64
2024/01/13 15:26:14;;;;;;;12.85;5.22;;;;;;;3.19;64.37;100800.50;10449291;28;20049;-64
2024/01/13 15:31:16;;;;;;;11.10;5.18;;;;;;;3.19;64.59;100797.84;10447578;28;20082;-64
2024/01/13 15:36:17;;;;;;;16.90;5.60;;;;;;;3.21;64.34;100787.94;10447882;28;20053;-62
2024/01/13 15:41:19;;;;;;;13.93;6.10;;;;;;;3.13;64.86;100788.53;10433459;28;20069;-65
2024/01/13 15:46:20;;;;;;;12.95;5.50;;;;;;;3.15;64.76;100783.13;10441836;22;20056;-60
2024/01/13 15:51:22;;;;;;;14.55;7.20;;;;;;;3.03;65.40;100782.25;10418605;28;20065;-64
2024/01/13 15:56:23;;;;;;;15.77;6.32;;;;;;;3.00;64.99;100778.97;10423115;28;20042;-60
2024/01/13 16:01:26;;;;;;;17.02;6.25;;;;;;;2.95;65.41;100774.00;10430433;28;20177;-61
2024/01/13 16:06:27;;;;;;;14.82;6.78;;;;;;;2.93;65.27;100767.97;10419523;28;20042;-62
2024/01/13 16:11:29;;;;;;;16.85;5.93;;;;;;;2.99;64.93;100772.81;10428687;28;20504;-61
2024/01/13 16:16:31;;;;;;;19.25;6.70;;;;;;;3.03;65.56;100768.13;10413262;28;20037;-61
2024/01/13 16:21:32;;;;;;;16.65;7.32;;;;;;;3.00;65.43;100771.00;10403349;28;20441;-58
2024/01/13 16:26:34;;;;;;;13.25;6.75;;;;;;;3.01;65.32;100762.91;10399556;28;20531;-61
2024/01/13 16:31:36;;;;;;;13.45;5.88;;;;;;;2.91;65.53;100760.13;10385483;28;20079;-60
2024/01/13 16:36:37;;;;;;;15.48;6.22;;;;;;;2.88;66.06;100763.00;10378253;28;20099;-59
2024/01/13 16:41:39;;;;;;;16.30;6.13;;;;;;;2.80;66.35;100767.19;10401424;28;20045;-59
2024/01/13 16:46:40;;;;;;;15.15;6.40;;;;;;;2.74;66.56;100773.81;10381241;28;20728;-59
2024/01/13 16:51:42;;;;;;;18.48;7.93;;;;;;;2.74;66.41;100755.22;10335460;28;20062;-59
2024/01/13 16:56:43;;;;;;;20.02;8.15;;;;;;;2.70;67.09;100764.38;10339849;28;20046;-59
2024/01/13 17:01:45;;;;;;;15.30;6.85;;;;;;;2.72;67.10;100754.50;10338300;28;20130;-59
2024/01/13 17:06:46;;;;;;;15.23;6.22;;;;;;;2.65;67.01;100750.63;10340916;28;20053;-60
2024/01/13 17:11:51;;;;;;;18.88;7.40;;;;;;;2.65;67.57;100754.13;10339604;28;20054;-59
2024/01/13 17:16:52;;;;;;;13.07;6.03;;;;;;;2.60;67.58;100732.38;10333738;28;20096;-59
2024/01/13 17:21:56;;;;;;;18.23;6.90;;;;;;;2.61;67.27;100743.84;10338528;28;20497;-59
2024/01/13 17:26:57;;;;;;;17.33;7.18;;;;;;;2.63;67.71;100734.81;10340862;28;20153;-59
2024/01/13 17:31:59;;;;;;;16.17;7.65;;;;;;;2.67;67.62;100752.19;10323273;28;20062;-59
2024/01/13 17:37:00;;;;;;;18.10;6.90;;;;;;;2.66;67.33;100749.66;10337391;28;20065;-59
2024/01/13 17:42:02;;;;;;;16.10;5.93;;;;;;;2.79;67.55;100758.41;10335247;28;20046;-59
2024/01/13 17:47:03;;;;;;;19.90;7.35;;;;;;;2.83;66.88;100751.06;10336741;28;20046;-58
2024/01/13 17:52:05;;;;;;;19.20;7.30;;;;;;;2.86;66.92;100743.69;10329878;28;20069;-59
2024/01/13 17:57:08;;;;;;;21.95;9.07;;;;;;;2.80;67.70;100749.44;10323673;28;20057;-58
2024/01/13 18:02:13;;;;;;;18.13;7.32;;;;;;;2.87;67.34;100748.03;10336002;28;20060;-58
2024/01/13 18:07:15;;;;;;;19.02;8.02;;;;;;;2.89;67.26;100740.81;10340752;28;20050;-60
2024/01/13 18:12:16;;;;;;;16.55;6.85;;;;;;;2.91;66.99;100748.66;10336852;28;20133;-57
2024/01/13 18:17:18;;;;;;;16.77;7.10;;;;;;;2.86;67.02;100754.28;10338558;28;20137;-59
2024/01/13 18:22:20;;;;;;;16.08;7.35;;;;;;;2.92;67.23;100751.19;10335245;28;20054;-58
2024/01/13 18:27:22;;;;;;;17.55;7.63;;;;;;;2.91;67.29;100751.31;10337622;28;20053;-58
2024/01/13 18:32:24;;;;;;;17.27;6.78;;;;;;;2.91;66.85;100744.19;10339489;28;20050;-58
2024/01/13 18:37:25;;;;;;;20.15;7.85;;;;;;;2.87;67.21;100740.06;10339737;28;20049;-59
2024/01/13 18:42:27;;;;;;;15.40;7.20;;;;;;;2.90;66.72;100725.72;10343151;28;20169;-57
2024/01/13 18:47:29;;;;;;;18.80;8.18;;;;;;;2.88;67.04;100709.06;10342270;28;20108;-58
2024/01/13 18:52:31;;;;;;;27.23;9.02;;;;;;;2.92;66.72;100714.03;10328275;28;20054;-57
2024/01/13 18:57:34;;;;;;;17.42;7.97;;;;;;;2.89;67.03;100711.59;10340319;28;20038;-56
2024/01/13 19:02:36;;;;;;;19.50;7.88;;;;;;;3.00;66.62;100716.06;10337938;28;20177;-56
2024/01/13 19:07:37;;;;;;;22.80;7.90;;;;;;;3.00;66.62;100713.41;10334663;28;20064;-57
2024/01/13 19:12:39;;;;;;;19.33;7.47;;;;;;;3.02;66.48;100700.03;10333551;28;20046;-57
2024/01/13 19:17:41;;;;;;;19.40;8.25;;;;;;;3.01;66.44;100706.31;10330580;28;20524;-58
2024/01/13 19:22:42;;;;;;;16.05;7.05;;;;;;;3.01;66.37;100701.84;10331220;28;20100;-58
2024/01/13 19:27:44;;;;;;;16.67;6.93;;;;;;;3.00;66.60;100702.78;10330300;28;20140;-57
2024/01/13 19:32:45;;;;;;;18.80;7.13;;;;;;;2.92;66.12;100705.19;10318772;28;20046;-57
2024/01/13 19:37:47;;;;;;;22.17;8.52;;;;;;;2.91;66.57;100683.13;10334689;28;20687;-57
2024/01/13 19:42:48;;;;;;;17.80;7.78;;;;;;;2.87;66.79;100668.41;10332868;28;20058;-57
2024/01/13 19:47:50;;;;;;;23.17;8.75;;;;;;;2.82;66.03;100662.56;10336813;28;20058;-58
2024/01/13 19:52:51;;;;;;;24.67;8.82;;;;;;;2.73;66.29;100639.41;10334040;28;20038;-58
2024/01/13 19:57:53;;;;;;;20.08;8.10;;;;;;;2.82;66.17;100640.50;10331486;28;20429;-58
2024/01/13 20:02:54;;;;;;;20.35;7.53;;;;;;;2.84;65.90;100659.81;10333609;28;20064;-58
2024/01/13 20:07:56;;;;;;;26.55;9.02;;;;;;;2.83;65.99;100651.00;10331064;28;20085;-61
2024/01/13 20:12:57;;;;;;;30.40;9.38;;;;;;;2.81;66.10;100642.31;10337567;28;20056;-59
2024/01/13 20:17:58;;;;;;;21.77;7.63;;;;;;;2.76;66.07;100639.16;10334368;28;20153;-59
2024/01/13 20:23:00;;;;;;;22.35;8.63;;;;;;;2.76;65.77;100644.47;10327955;28;20145;-56
2024/01/13 20:28:02;;;;;;;24.30;10.40;;;;;;;2.78;66.04;100627.50;10337690;28;20069;-57
2024/01/13 20:33:03;;;;;;;17.80;7.80;;;;;;;2.71;65.53;100610.34;10334898;28;20065;-59
2024/01/13 20:38:06;;;;;;;23.45;9.52;;;;;;;2.71;65.44;100620.94;10340539;28;20069;-58
2024/01/13 20:43:07;;;;;;;19.02;7.50;;;;;;;2.80;65.41;100629.16;10341306;28;20054;-57
2024/01/13 20:48:08;;;;;;;20.75;8.35;;;;;;;2.70;65.79;100613.94;10336578;28;20062;-57
2024/01/13 20:53:10;;;;;;;20.33;7.75;;;;;;;2.69;65.63;100609.59;10345965;28;20054;-56
2024/01/13 20:58:11;;;;;;;25.65;8.13;;;;;;;2.61;66.01;100619.97;10337319;28;20055;-57
2024/01/13 21:03:14;;;;;;;23.50;8.73;;;;;;;2.73;65.63;100610.22;10338081;28;20061;-58
2024/01/13 21:08:15;;;;;;;21.73;8.55;;;;;;;2.78;65.42;100606.25;10340484;28;20046;-57
2024/01/13 21:13:17;;;;;;;19.85;8.18;;;;;;;2.74;65.55;100611.91;10338494;28;20046;-58
2024/01/13 21:18:19;;;;;;;22.70;8.25;;;;;;;2.70;65.21;100610.44;10324875;28;20062;-57
2024/01/13 21:23:21;;;;;;;18.45;7.43;;;;;;;2.70;65.27;100599.84;10327027;28;20441;-57
2024/01/13 21:28:22;;;;;;;18.75;8.07;;;;;;;2.76;65.39;100591.38;10337311;28;20621;-58
2024/01/13 21:33:25;;;;;;;20.17;7.43;;;;;;;2.72;65.26;100587.28;10336638;28;20057;-58
2024/01/13 21:38:27;;;;;;;19.17;9.27;;;;;;;2.71;65.13;100583.78;10337780;28;20145;-58
2024/01/13 21:43:31;;;;;;;25.08;9.20;;;;;;;2.68;65.16;100573.41;10340079;28;20046;-58
2024/01/13 21:48:33;;;;;;;25.17;8.25;;;;;;;2.76;65.03;100568.38;10336339;28;20331;-58
2024/01/13 21:53:35;;;;;;;23.35;9.27;;;;;;;2.69;64.60;100543.25;10337087;28;20079;-58
2024/01/13 21:58:36;;;;;;;16.30;6.97;;;;;;;2.70;64.89;100541.44;10339670;28;20056;-57
2024/01/13 22:03:38;;;;;;;20.23;7.55;;;;;;;2.67;65.26;100536.38;10334947;28;20400;-58
2024/01/13 22:08:39;;;;;;;21.73;8.35;;;;;;;2.60;65.38;100532.53;10337909;28;20042;-57
2024/01/13 22:13:41;;;;;;;17.63;6.85;;;;;;;2.52;65.14;100535.75;10344253;28;20046;-58
2024/01/13 22:18:42;;;;;;;16.98;7.15;;;;;;;2.52;65.27;100519.84;10340550;28;20064;-59
2024/01/13 22:23:44;;;;;;;19.40;8.10;;;;;;;2.41;65.27;100525.13;10321855;28;20046;-58
2024/01/13 22:28:46;;;;;;;15.23;6.90;;;;;;;2.36;65.11;100514.88;10340550;28;20045;-57
2024/01/13 22:33:47;;;;;;;21.38;8.60;;;;;;;2.30;65.32;100504.75;10339058;28;20476;-57
2024/01/13 22:38:49;;;;;;;20.90;7.95;;;;;;;2.23;65.47;100488.47;10336307;28;20474;-57
2024/01/13 22:43:50;;;;;;;20.05;8.85;;;;;;;2.20;65.88;100487.88;10319132;28;20086;-56
2024/01/13 22:48:52;;;;;;;19.90;8.75;;;;;;;2.16;65.33;100474.00;10337652;28;20056;-56
2024/01/13 22:53:54;;;;;;;17.15;6.97;;;;;;;2.14;66.04;100484.72;10336721;28;20559;-56
2024/01/13 22:58:55;;;;;;;22.58;8.00;;;;;;;2.17;65.81;100483.63;10337366;28;20045;-57
2024/01/13 23:03:57;;;;;;;15.65;6.88;;;;;;;2.13;65.86;100485.69;10336913;28;20052;-57